createdAt,value
2016-10-13T07:20:20.097Z,730.22
2016-10-13T07:21:20.088Z,730.24
2016-10-13T07:22:20.073Z,730.25
2016-10-13T07:23:20.058Z,730.26
2016-10-13T07:24:20.036Z,730.24
2016-10-13T07:25:20.021Z,730.28
2016-10-13T07:26:20.013Z,730.32
2016-10-13T07:27:19.990Z,730.29
2016-10-13T07:28:19.975Z,730.34
2016-10-13T07:29:19.967Z,730.32
2016-10-13T07:30:19.944Z,730.31
2016-10-13T07:31:19.937Z,730.37
2016-10-13T07:32:19.922Z,730.33
2016-10-13T07:33:19.900Z,730.28
2016-10-13T07:34:19.891Z,730.3
2016-10-13T07:35:19.877Z,730.27
2016-10-13T07:36:19.862Z,730.25
2016-10-13T07:37:19.847Z,730.22
2016-10-13T07:38:19.832Z,730.27
2016-10-13T07:39:19.817Z,730.27
2016-10-13T07:40:19.795Z,730.22
2016-10-13T07:41:19.780Z,730.26
2016-10-13T07:42:19.765Z,730.23
2016-10-13T07:43:19.751Z,730.23
2016-10-13T07:44:19.737Z,730.22
2016-10-13T07:45:19.728Z,730.21
2016-10-13T07:46:19.707Z,730.16
2016-10-13T07:47:19.694Z,730.18
2016-10-13T07:48:19.680Z,730.21
2016-10-13T07:49:19.664Z,730.21
2016-10-13T07:50:19.652Z,730.22
2016-10-13T07:51:19.644Z,730.16
2016-10-13T07:52:19.622Z,730.2
2016-10-13T07:53:19.609Z,730.15
2016-10-13T07:54:19.602Z,730.21
2016-10-13T07:55:19.583Z,730.17
2016-10-13T07:56:19.582Z,730.17
2016-10-13T07:57:19.553Z,730.17
2016-10-13T07:58:19.547Z,730.16
2016-10-13T07:59:19.533Z,730.21
2016-10-13T08:00:19.519Z,730.18
2016-10-13T08:01:19.497Z,730.16
2016-10-13T08:02:19.485Z,730.17
2016-10-13T08:03:19.469Z,730.17
2016-10-13T08:04:19.456Z,730.11
2016-10-13T08:05:19.448Z,730.24
2016-10-13T08:06:19.434Z,730.24
2016-10-13T08:07:19.412Z,730.24
2016-10-13T08:08:19.397Z,730.28
2016-10-13T08:09:19.390Z,730.28
2016-10-13T08:10:19.376Z,730.24
2016-10-13T08:11:19.360Z,730.3
2016-10-13T08:12:19.340Z,730.3
2016-10-13T08:13:19.331Z,730.34
2016-10-13T08:14:19.308Z,730.3
2016-10-13T08:15:19.301Z,730.32
2016-10-13T08:16:19.280Z,730.28
2016-10-13T08:17:19.272Z,730.36
2016-10-13T08:18:19.250Z,730.41
2016-10-13T08:19:19.236Z,730.38
2016-10-13T08:20:19.228Z,730.39
2016-10-13T08:21:19.213Z,730.41
2016-10-13T08:22:19.198Z,730.37
2016-10-13T08:23:19.184Z,730.42
2016-10-13T08:24:19.163Z,730.41
2016-10-13T08:25:19.155Z,730.41
2016-10-13T08:26:19.141Z,730.41
2016-10-13T08:27:19.120Z,730.43
2016-10-13T08:28:19.107Z,730.42
2016-10-13T08:29:19.092Z,730.44
2016-10-13T08:30:19.086Z,730.43
2016-10-13T08:31:19.073Z,730.4
2016-10-13T08:32:19.060Z,730.48
2016-10-13T08:33:19.038Z,730.5
2016-10-13T08:34:19.033Z,730.47
2016-10-13T08:35:19.014Z,730.5
2016-10-13T08:36:19.007Z,730.48
2016-10-13T08:37:18.993Z,730.51
2016-10-13T08:38:18.981Z,730.52
2016-10-13T08:39:18.968Z,730.51
2016-10-13T08:40:18.949Z,730.5
2016-10-13T08:41:18.936Z,730.44
2016-10-13T08:42:18.923Z,730.42
2016-10-13T08:43:18.918Z,730.45
2016-10-13T08:44:18.905Z,730.49
2016-10-13T08:45:18.886Z,730.52
2016-10-13T08:46:18.874Z,730.47
2016-10-13T08:47:18.861Z,730.48
2016-10-13T08:48:18.850Z,730.47
2016-10-13T08:49:18.836Z,730.49
2016-10-13T08:50:18.824Z,730.48
2016-10-13T08:51:18.811Z,730.52
2016-10-13T08:52:18.806Z,730.5
2016-10-13T08:53:18.793Z,730.49
2016-10-13T08:54:18.773Z,730.51
2016-10-13T08:55:18.768Z,730.55
2016-10-13T08:56:18.748Z,730.6
2016-10-13T08:57:18.743Z,730.54
2016-10-13T08:58:18.729Z,730.55
2016-10-13T08:59:18.716Z,730.54
2016-10-13T09:00:18.702Z,730.69
2016-10-13T09:01:18.682Z,730.65
2016-10-13T09:02:18.675Z,730.65
2016-10-13T09:03:18.662Z,730.67
2016-10-13T09:04:18.648Z,730.67
2016-10-13T09:05:18.627Z,730.65
2016-10-13T09:06:18.621Z,730.65
2016-10-13T09:07:18.601Z,730.58
2016-10-13T09:08:18.595Z,730.56
2016-10-13T09:09:18.573Z,730.5
2016-10-13T09:10:18.560Z,730.62
2016-10-13T09:11:18.548Z,730.49
2016-10-13T09:12:18.534Z,730.49
2016-10-13T09:13:18.526Z,730.61
2016-10-13T09:14:18.513Z,730.52
2016-10-13T09:15:18.493Z,730.59
2016-10-13T09:16:18.485Z,730.51
2016-10-13T09:17:18.471Z,730.54
2016-10-13T09:18:18.458Z,730.51
2016-10-13T09:19:18.438Z,730.57
2016-10-13T09:20:18.424Z,730.6
2016-10-13T09:21:18.410Z,730.62
2016-10-13T09:22:18.405Z,730.61
2016-10-13T09:23:18.386Z,730.58
2016-10-13T09:24:18.371Z,730.53
2016-10-13T09:25:18.361Z,730.56
2016-10-13T09:26:18.348Z,730.61
2016-10-13T09:27:18.341Z,730.6
2016-10-13T09:28:18.322Z,730.58
2016-10-13T09:29:18.318Z,730.55
2016-10-13T09:30:18.299Z,730.53
2016-10-13T09:31:18.284Z,730.55
2016-10-13T09:32:18.272Z,730.49
2016-10-13T09:33:18.267Z,730.48
2016-10-13T09:34:18.255Z,730.56
2016-10-13T09:35:18.242Z,730.57
2016-10-13T09:36:18.224Z,730.52
2016-10-13T09:37:18.218Z,730.47
2016-10-13T09:38:18.205Z,730.5
2016-10-13T09:39:18.187Z,730.48
2016-10-13T09:40:18.175Z,730.49
2016-10-13T09:41:18.170Z,730.45
2016-10-13T09:42:18.157Z,730.47
2016-10-13T09:43:18.146Z,730.45
2016-10-13T09:44:18.128Z,730.47
2016-10-13T09:45:18.123Z,730.46
2016-10-13T09:46:18.104Z,730.45
2016-10-13T09:47:18.100Z,730.39
2016-10-13T09:48:18.089Z,730.43
2016-10-13T09:49:18.077Z,730.45
2016-10-13T09:50:18.058Z,730.46
2016-10-13T09:51:18.055Z,730.53
2016-10-13T09:52:18.036Z,730.54
2016-10-13T09:53:18.025Z,730.49
2016-10-13T09:54:18.021Z,730.46
2016-10-13T09:55:18.010Z,730.51
2016-10-13T09:56:17.999Z,730.5
2016-10-13T09:57:17.981Z,730.55
2016-10-13T09:58:17.970Z,730.57
2016-10-13T09:59:17.967Z,730.47
2016-10-13T10:00:17.949Z,730.45
2016-10-13T10:01:17.938Z,730.52
2016-10-13T10:02:17.928Z,730.55
2016-10-13T10:03:17.917Z,730.53
2016-10-13T10:04:17.904Z,730.51
2016-10-13T10:05:17.895Z,730.48
2016-10-13T10:06:17.883Z,730.49
2016-10-13T10:07:17.880Z,730.49
2016-10-13T10:08:17.868Z,730.48
2016-10-13T10:09:17.858Z,730.44
2016-10-13T10:10:17.848Z,730.4
2016-10-13T10:11:17.837Z,730.45
2016-10-13T10:12:17.826Z,730.38
2016-10-13T10:13:17.809Z,730.42
2016-10-13T10:14:17.805Z,730.4
2016-10-13T10:15:17.793Z,730.36
2016-10-13T10:16:17.783Z,730.38
2016-10-13T10:17:17.773Z,730.33
2016-10-13T10:18:17.756Z,730.34
2016-10-13T10:19:17.743Z,730.33
2016-10-13T10:20:17.734Z,730.4
2016-10-13T10:21:17.724Z,730.42
2016-10-13T10:22:17.719Z,730.33
2016-10-13T10:23:17.701Z,730.3
2016-10-13T10:24:17.698Z,730.34
2016-10-13T10:25:17.681Z,730.4
2016-10-13T10:26:17.669Z,730.39
2016-10-13T10:27:17.666Z,730.26
2016-10-13T10:28:17.655Z,730.23
2016-10-13T10:29:17.644Z,730.24
2016-10-13T10:30:17.634Z,730.33
2016-10-13T10:31:17.616Z,730.29
2016-10-13T10:32:17.606Z,730.35
2016-10-13T10:33:17.600Z,730.33
2016-10-13T10:34:17.589Z,730.35
2016-10-13T10:35:17.571Z,730.3
2016-10-13T10:36:17.568Z,730.37
2016-10-13T10:37:17.555Z,730.35
2016-10-13T10:38:17.536Z,730.4
2016-10-13T10:39:17.525Z,730.25
2016-10-13T10:40:17.513Z,730.46
2016-10-13T10:41:17.509Z,730.33
2016-10-13T10:42:17.508Z,730.38
2016-10-13T10:43:17.487Z,730.37
2016-10-13T10:44:17.469Z,730.31
2016-10-13T10:45:17.464Z,730.34
2016-10-13T10:46:17.446Z,730.37
2016-10-13T10:47:17.435Z,730.37
2016-10-13T10:48:17.430Z,730.35
2016-10-13T10:49:17.413Z,730.29
2016-10-13T10:50:17.408Z,730.22
2016-10-13T10:51:17.397Z,730.33
2016-10-13T10:52:17.385Z,730.47
2016-10-13T10:53:17.368Z,730.43
2016-10-13T10:54:17.362Z,730.27
2016-10-13T10:55:17.351Z,730.3
2016-10-13T10:56:17.339Z,730.22
2016-10-13T10:57:17.319Z,730.28
2016-10-13T10:58:17.314Z,730.22
2016-10-13T10:59:17.302Z,730.3
2016-10-13T11:00:17.284Z,730.27
2016-10-13T11:01:17.279Z,730.34
2016-10-13T11:02:17.258Z,730.31
2016-10-13T11:03:17.248Z,730.27
2016-10-13T11:04:17.242Z,730.31
2016-10-13T11:05:17.230Z,730.29
2016-10-13T11:06:17.210Z,730.3
2016-10-13T11:07:17.206Z,730.19
2016-10-13T11:08:17.194Z,730.26
2016-10-13T11:09:17.183Z,730.17
2016-10-13T11:10:17.163Z,730.27
2016-10-13T11:11:17.158Z,730.36
2016-10-13T11:12:17.139Z,730.32
2016-10-13T11:13:17.133Z,730.34
2016-10-13T11:14:17.115Z,730.26
2016-10-13T11:15:17.102Z,730.34
2016-10-13T11:16:17.098Z,730.22
2016-10-13T11:17:17.084Z,730.2
2016-10-13T11:18:17.073Z,730.3
2016-10-13T11:19:17.060Z,730.24
2016-10-13T11:20:17.048Z,730.13
2016-10-13T11:21:17.029Z,730.2
2016-10-13T11:22:17.023Z,730.28
2016-10-13T11:23:17.010Z,730.23
2016-10-13T11:24:16.990Z,730.16
2016-10-13T11:25:16.985Z,730.16
2016-10-13T11:26:16.966Z,730.18
2016-10-13T11:27:16.960Z,730.16
2016-10-13T11:28:16.939Z,730.15
2016-10-13T11:29:16.934Z,730.17
2016-10-13T11:30:16.921Z,730.1
2016-10-13T11:31:16.902Z,730.18
2016-10-13T11:32:16.887Z,730.15
2016-10-13T11:33:16.873Z,730.19
2016-10-13T11:34:16.867Z,730.16
2016-10-13T11:35:16.853Z,730.2
2016-10-13T11:36:16.833Z,730.23
2016-10-13T11:37:16.827Z,730.29
2016-10-13T11:38:16.807Z,730.17
2016-10-13T11:39:16.793Z,730.13
2016-10-13T11:40:16.787Z,730.08
2016-10-13T11:41:16.767Z,730
2016-10-13T11:42:16.760Z,730.03
2016-10-13T11:43:16.738Z,730.18
2016-10-13T11:44:16.725Z,730.19
2016-10-13T11:45:16.717Z,730.16
2016-10-13T11:46:16.695Z,730.14
2016-10-13T11:47:16.681Z,730.17
2016-10-13T11:48:16.667Z,730.27
2016-10-13T11:49:16.651Z,730.2
2016-10-13T11:50:16.636Z,730.08
2016-10-13T11:51:16.623Z,730.13
2016-10-13T11:52:16.614Z,730.04
2016-10-13T11:53:16.599Z,730.17
2016-10-13T11:54:16.578Z,730.14
2016-10-13T11:55:16.569Z,730.13
2016-10-13T11:56:16.554Z,730.15
2016-10-13T11:57:16.532Z,730.09
2016-10-13T11:58:16.517Z,730.11
2016-10-13T11:59:16.510Z,730.04
2016-10-13T12:00:16.488Z,729.98
2016-10-13T12:01:16.473Z,730.04
2016-10-13T12:02:16.458Z,729.95
2016-10-13T12:03:16.444Z,729.87
2016-10-13T12:04:16.430Z,729.93
2016-10-13T12:05:16.415Z,729.92
2016-10-13T12:06:16.409Z,729.95
2016-10-13T12:07:16.395Z,729.89
2016-10-13T12:08:16.373Z,729.87
2016-10-13T12:09:16.359Z,729.85
2016-10-13T12:10:16.352Z,729.94
2016-10-13T12:11:16.332Z,729.92
2016-10-13T12:12:16.323Z,729.83
2016-10-13T12:13:16.303Z,729.84
2016-10-13T12:14:16.289Z,729.72
2016-10-13T12:15:16.280Z,729.88
2016-10-13T12:16:16.259Z,729.78
2016-10-13T12:17:16.245Z,729.82
2016-10-13T12:18:16.237Z,729.91
2016-10-13T12:19:16.215Z,729.74
2016-10-13T12:20:16.202Z,729.82
2016-10-13T12:21:16.186Z,729.97
2016-10-13T12:22:16.172Z,729.85
2016-10-13T12:23:16.164Z,729.88
2016-10-13T12:24:16.150Z,729.98
2016-10-13T12:25:16.136Z,729.88
2016-10-13T12:26:16.121Z,730.02
2016-10-13T12:27:16.107Z,729.9
2016-10-13T12:28:16.085Z,729.86
2016-10-13T12:29:16.071Z,730.01
2016-10-13T12:30:16.063Z,729.93
2016-10-13T12:31:16.048Z,729.9
2016-10-13T12:32:16.034Z,730.05
2016-10-13T12:33:16.019Z,730.01
2016-10-13T12:34:16.004Z,729.89
2016-10-13T12:35:15.982Z,729.91
2016-10-13T12:36:15.976Z,729.93
2016-10-13T12:37:15.952Z,729.96
2016-10-13T12:38:15.945Z,729.91
2016-10-13T12:39:15.924Z,729.98
2016-10-13T12:40:15.909Z,729.92
2016-10-13T12:41:15.901Z,729.94
2016-10-13T12:42:15.887Z,729.82
2016-10-13T12:43:15.866Z,729.94
2016-10-13T12:44:15.852Z,730.04
2016-10-13T12:45:15.844Z,729.96
2016-10-13T12:46:15.830Z,729.82
2016-10-13T12:47:15.810Z,729.92
2016-10-13T12:48:15.801Z,729.72
2016-10-13T12:49:15.787Z,729.86
2016-10-13T12:50:15.773Z,730.08
2016-10-13T12:51:15.753Z,729.98
2016-10-13T12:52:15.737Z,729.93
2016-10-13T12:53:15.724Z,729.9
2016-10-13T12:54:15.717Z,729.86
2016-10-13T12:55:15.704Z,729.96
2016-10-13T12:56:15.681Z,730
2016-10-13T12:57:15.667Z,729.95
2016-10-13T12:58:15.659Z,729.83
2016-10-13T12:59:15.644Z,729.63
2016-10-13T13:00:15.630Z,729.49
2016-10-13T13:01:15.615Z,729.69
2016-10-13T13:02:15.593Z,729.77
2016-10-13T13:03:15.584Z,729.59
2016-10-13T13:04:15.562Z,729.62
2016-10-13T13:05:15.548Z,729.66
2016-10-13T13:06:15.539Z,729.85
2016-10-13T13:07:15.523Z,729.83
2016-10-13T13:08:15.502Z,729.79
2016-10-13T13:09:15.487Z,729.67
2016-10-13T13:10:15.477Z,729.8
2016-10-13T13:11:15.462Z,729.69
2016-10-13T13:12:15.447Z,729.73
2016-10-13T13:13:15.432Z,729.59
2016-10-13T13:14:15.416Z,729.41
2016-10-13T13:15:15.401Z,729.41
2016-10-13T13:16:15.378Z,729.48
2016-10-13T13:17:15.363Z,729.57
2016-10-13T13:18:15.347Z,729.7
2016-10-13T13:19:15.333Z,729.68
2016-10-13T13:20:15.324Z,729.66
2016-10-13T13:21:15.301Z,729.84
2016-10-13T13:22:15.286Z,729.28
2016-10-13T13:23:15.271Z,729.48
2016-10-13T13:24:15.263Z,729.69
2016-10-13T13:25:15.246Z,729.61
2016-10-13T13:26:15.225Z,729.56
2016-10-13T13:27:15.216Z,729.7
2016-10-13T13:28:15.193Z,729.3
2016-10-13T13:29:15.184Z,729.39
2016-10-13T13:30:15.168Z,729.51
2016-10-13T13:31:15.145Z,729.66
2016-10-13T13:32:15.136Z,729.56
2016-10-13T13:33:15.114Z,729.53
2016-10-13T13:34:15.105Z,729.67
2016-10-13T13:35:15.090Z,729.58
2016-10-13T13:36:15.067Z,729.32
2016-10-13T13:37:15.051Z,729.57
2016-10-13T13:38:15.043Z,729.47
2016-10-13T13:39:15.021Z,729.57
2016-10-13T13:40:15.006Z,729.6
2016-10-13T13:41:14.997Z,729.67
2016-10-13T13:42:14.982Z,729.64
2016-10-13T13:43:14.966Z,729.55
2016-10-13T13:44:14.952Z,729.62
2016-10-13T13:45:14.936Z,729.52
2016-10-13T13:46:14.914Z,729.47
2016-10-13T13:47:14.905Z,729.62
2016-10-13T13:48:14.890Z,729.53
2016-10-13T13:49:14.875Z,729.62
2016-10-13T13:50:14.852Z,729.52
2016-10-13T13:51:14.843Z,729.46
2016-10-13T13:52:14.822Z,729.5
2016-10-13T13:53:14.807Z,729.68
2016-10-13T13:54:14.790Z,729.75
2016-10-13T13:55:14.781Z,729.69
2016-10-13T13:56:14.766Z,729.49
2016-10-13T13:57:14.751Z,729.37
2016-10-13T13:58:14.735Z,729.29
2016-10-13T13:59:14.719Z,729.5
2016-10-13T14:00:14.704Z,729.46
2016-10-13T14:01:14.687Z,729.53
2016-10-13T14:02:14.666Z,729.59
2016-10-13T14:03:14.657Z,729.34
2016-10-13T14:04:14.635Z,729.38
2016-10-13T14:05:14.619Z,729.6
2016-10-13T14:06:14.609Z,729.78
2016-10-13T14:07:14.594Z,729.68
2016-10-13T14:08:14.571Z,729.54
2016-10-13T14:09:14.562Z,729.73
2016-10-13T14:10:14.547Z,729.81
2016-10-13T14:11:14.524Z,729.54
2016-10-13T14:12:14.515Z,729.39
2016-10-13T14:13:14.500Z,729.45
2016-10-13T14:14:14.478Z,729.45
2016-10-13T14:15:14.463Z,729.36
2016-10-13T14:16:14.445Z,729.47
2016-10-13T14:17:14.437Z,729.54
2016-10-13T14:18:14.422Z,729.58
2016-10-13T14:19:14.400Z,729.54
2016-10-13T14:20:14.389Z,729.46
2016-10-13T14:21:14.368Z,729.5
2016-10-13T14:22:14.359Z,729.48
2016-10-13T14:23:14.335Z,729.6
2016-10-13T14:24:14.321Z,729.65
2016-10-13T14:25:14.305Z,729.45
2016-10-13T14:26:14.297Z,729.53
2016-10-13T14:27:14.281Z,729.66
2016-10-13T14:28:14.259Z,729.68
2016-10-13T14:29:14.244Z,729.47
2016-10-13T14:30:14.236Z,729.5
2016-10-13T14:31:14.213Z,729.69
2016-10-13T14:32:14.204Z,729.66
2016-10-13T14:33:14.183Z,729.54
2016-10-13T14:34:14.172Z,729.61
2016-10-13T14:35:14.150Z,729.61
2016-10-13T14:36:14.141Z,729.44
2016-10-13T14:37:14.120Z,729.56
2016-10-13T14:38:14.203Z,729.55
2016-10-13T14:39:14.088Z,729.54
2016-10-13T14:40:14.079Z,729.54
2016-10-13T14:41:14.056Z,729.69
2016-10-13T14:42:14.048Z,729.59
2016-10-13T14:43:14.032Z,729.54
2016-10-13T14:44:14.010Z,729.57
2016-10-13T14:45:13.996Z,729.52
2016-10-13T14:46:13.981Z,729.51
2016-10-13T14:47:13.972Z,729.71
2016-10-13T14:48:13.951Z,729.3
2016-10-13T14:49:13.936Z,729.63
2016-10-13T14:50:13.927Z,729.61
2016-10-13T14:51:13.906Z,729.73
2016-10-13T14:52:13.898Z,729.59
2016-10-13T14:53:13.882Z,729.63
2016-10-13T14:54:13.861Z,729.58
2016-10-13T14:55:13.852Z,729.54
2016-10-13T14:56:13.829Z,729.66
2016-10-13T14:57:13.815Z,729.46
2016-10-13T14:58:13.799Z,729.66
2016-10-13T14:59:13.784Z,729.8
2016-10-13T15:00:13.768Z,729.72
2016-10-13T15:01:13.754Z,729.62
2016-10-13T15:02:13.746Z,729.68
2016-10-13T15:03:13.723Z,729.71
2016-10-13T15:04:13.715Z,729.62
2016-10-13T15:05:13.699Z,729.7
2016-10-13T15:06:13.684Z,729.6
2016-10-13T15:07:13.662Z,729.75
2016-10-13T15:08:13.653Z,729.61
2016-10-13T15:09:13.638Z,729.7
2016-10-13T15:10:13.617Z,729.29
2016-10-13T15:11:13.601Z,729.67
2016-10-13T15:12:13.592Z,729.74
2016-10-13T15:13:13.577Z,729.77
2016-10-13T15:14:13.562Z,729.56
2016-10-13T15:15:13.547Z,729.57
2016-10-13T15:16:13.526Z,729.54
2016-10-13T15:17:13.511Z,729.66
2016-10-13T15:18:13.502Z,729.57
2016-10-13T15:19:13.481Z,729.66
2016-10-13T15:20:13.472Z,729.62
2016-10-13T15:21:13.458Z,729.44
2016-10-13T15:22:13.442Z,729.72
2016-10-13T15:23:13.421Z,729.74
2016-10-13T15:24:13.405Z,729.77
2016-10-13T15:25:13.396Z,729.6
2016-10-13T15:26:13.374Z,729.61
2016-10-13T15:27:13.360Z,729.7
2016-10-13T15:28:13.352Z,729.52
2016-10-13T15:29:13.329Z,729.59
2016-10-13T15:30:13.315Z,729.64
2016-10-13T15:31:13.300Z,729.58
2016-10-13T15:32:13.292Z,729.54
2016-10-13T15:33:13.269Z,729.64
2016-10-13T15:34:13.311Z,729.72
2016-10-13T15:35:13.240Z,729.73
2016-10-13T15:36:13.230Z,729.68
2016-10-13T15:37:13.215Z,729.69
2016-10-13T15:38:13.193Z,729.75
2016-10-13T15:39:13.178Z,729.55
2016-10-13T15:40:13.162Z,729.81
2016-10-13T15:41:13.147Z,729.74
2016-10-13T15:42:13.139Z,729.76
2016-10-13T15:43:13.118Z,729.9
2016-10-13T15:44:13.102Z,729.89
2016-10-13T15:45:13.093Z,729.69
2016-10-13T15:46:13.078Z,729.74
2016-10-13T15:47:13.055Z,729.76
2016-10-13T15:48:13.042Z,729.87
2016-10-13T15:49:13.033Z,729.7
2016-10-13T15:50:13.018Z,729.8
2016-10-13T15:51:12.995Z,729.86
2016-10-13T15:52:12.987Z,729.89
2016-10-13T15:53:12.972Z,729.82
2016-10-13T15:54:12.950Z,729.74
2016-10-13T15:55:12.935Z,729.87
2016-10-13T15:56:12.921Z,729.75
2016-10-13T15:57:12.906Z,729.8
2016-10-13T15:58:12.897Z,729.78
2016-10-13T15:59:12.874Z,729.87
2016-10-13T16:00:12.867Z,729.87
2016-10-13T16:01:12.852Z,729.81
2016-10-13T16:02:12.836Z,729.93
2016-10-13T16:03:12.821Z,729.81
2016-10-13T16:04:13.002Z,729.88
2016-10-13T16:05:12.784Z,729.83
2016-10-13T16:06:12.769Z,729.8
2016-10-13T16:07:12.761Z,729.86
2016-10-13T16:08:12.746Z,729.84
2016-10-13T16:09:12.723Z,729.88
2016-10-13T16:10:12.715Z,729.94
2016-10-13T16:11:12.700Z,729.87
2016-10-13T16:12:12.679Z,729.67
2016-10-13T16:13:12.663Z,729.77
2016-10-13T16:14:12.646Z,729.72
2016-10-13T16:15:12.639Z,729.82
2016-10-13T16:16:12.623Z,729.79
2016-10-13T16:17:12.601Z,729.92
2016-10-13T16:18:12.586Z,729.73
2016-10-13T16:19:12.577Z,729.86
2016-10-13T16:20:12.560Z,729.91
2016-10-13T16:21:12.538Z,729.76
2016-10-13T16:22:12.530Z,729.75
2016-10-13T16:23:12.508Z,729.87
2016-10-13T16:24:12.492Z,729.63
2016-10-13T16:25:12.483Z,729.75
2016-10-13T16:26:12.468Z,729.73
2016-10-13T16:27:12.452Z,729.89
2016-10-13T16:28:12.428Z,729.98
2016-10-13T16:29:12.420Z,729.82
2016-10-13T16:30:12.405Z,730.01
2016-10-13T16:31:12.388Z,729.77
2016-10-13T16:32:12.373Z,730.09
2016-10-13T16:33:12.350Z,729.74
2016-10-13T16:34:12.336Z,729.88
2016-10-13T16:35:12.319Z,729.73
2016-10-13T16:36:12.311Z,729.95
2016-10-13T16:37:12.290Z,729.95
2016-10-13T16:38:12.274Z,729.89
2016-10-13T16:39:12.264Z,729.89
2016-10-13T16:40:12.249Z,730.04
2016-10-13T16:41:12.234Z,729.9
2016-10-13T16:42:12.218Z,729.84
2016-10-13T16:43:12.196Z,729.84
2016-10-13T16:44:12.187Z,729.9
2016-10-13T16:45:12.173Z,730.02
2016-10-13T16:46:12.149Z,730.08
2016-10-13T16:47:12.141Z,729.88
2016-10-13T16:48:12.127Z,729.92
2016-10-13T16:49:12.111Z,729.98
2016-10-13T16:50:12.096Z,730.01
2016-10-13T16:51:12.075Z,729.99
2016-10-13T16:52:12.066Z,729.8
2016-10-13T16:53:12.044Z,729.9
2016-10-13T16:54:12.036Z,729.85
2016-10-13T16:55:12.013Z,729.89
2016-10-13T16:56:11.999Z,730.09
2016-10-13T16:57:11.989Z,729.87
2016-10-13T16:58:11.968Z,729.79
2016-10-13T16:59:11.960Z,729.86
2016-10-13T17:00:11.944Z,730.05
2016-10-13T17:01:11.979Z,729.83
2016-10-13T17:02:11.913Z,730.03
2016-10-13T17:03:11.891Z,729.96
2016-10-13T17:04:11.876Z,729.9
2016-10-13T17:05:11.867Z,730.08
2016-10-13T17:06:11.851Z,729.87
2016-10-13T17:07:11.830Z,730.11
2016-10-13T17:08:11.813Z,730.16
2016-10-13T17:09:11.799Z,730.06
2016-10-13T17:10:11.789Z,729.87
2016-10-13T17:11:11.766Z,729.97
2016-10-13T17:12:11.752Z,730
2016-10-13T17:13:11.736Z,729.93
2016-10-13T17:14:11.728Z,730.02
2016-10-13T17:15:11.705Z,729.86
2016-10-13T17:16:11.690Z,729.81
2016-10-13T17:17:11.681Z,730.02
2016-10-13T17:18:11.666Z,730.01
2016-10-13T17:19:11.643Z,729.93
2016-10-13T17:20:11.635Z,730.03
2016-10-13T17:21:11.620Z,730.03
2016-10-13T17:22:11.603Z,730.03
2016-10-13T17:23:11.582Z,730.15
2016-10-13T17:24:11.566Z,729.97
2016-10-13T17:25:11.551Z,730.02
2016-10-13T17:26:11.536Z,730.09
2016-10-13T17:27:11.528Z,730.11
2016-10-13T17:28:11.507Z,730.13
2016-10-13T17:29:11.491Z,730.26
2016-10-13T17:30:11.483Z,729.91
2016-10-13T17:31:11.469Z,730.11
2016-10-13T17:32:11.454Z,729.99
2016-10-13T17:33:11.432Z,730.08
2016-10-13T17:34:11.417Z,729.98
2016-10-13T17:35:11.402Z,729.95
2016-10-13T17:36:11.394Z,730.04
2016-10-13T17:37:11.372Z,729.86
2016-10-13T17:38:11.358Z,729.64
2016-10-13T17:39:11.349Z,729.81
2016-10-13T17:40:11.328Z,729.76
2016-10-13T17:41:11.319Z,730
2016-10-13T17:42:11.305Z,730.08
2016-10-13T17:43:11.283Z,729.88
2016-10-13T17:44:11.268Z,729.94
2016-10-13T17:45:11.254Z,729.93
2016-10-13T17:46:11.246Z,730.06
2016-10-13T17:47:11.231Z,730.12
2016-10-13T17:48:11.208Z,729.97
2016-10-13T17:49:11.195Z,730.18
2016-10-13T17:50:11.186Z,729.97
2016-10-13T17:51:11.172Z,730.05
2016-10-13T17:52:11.156Z,730.38
2016-10-13T17:53:11.141Z,729.64
2016-10-13T17:54:11.127Z,730.05
2016-10-13T17:55:11.111Z,730.2
2016-10-13T17:56:11.089Z,729.89
2016-10-13T17:57:11.082Z,730.22
2016-10-13T17:58:11.067Z,729.95
2016-10-13T17:59:11.051Z,729.9
2016-10-13T18:00:11.036Z,729.83
2016-10-13T18:01:11.015Z,730.09
2016-10-13T18:02:11.007Z,729.96
2016-10-13T18:03:10.991Z,730.02
2016-10-13T18:04:10.976Z,730.1
2016-10-13T18:05:10.961Z,730.19
2016-10-13T18:06:10.938Z,730.11
2016-10-13T18:07:10.923Z,729.93
2016-10-13T18:08:10.915Z,730.16
2016-10-13T18:09:10.900Z,730.21
2016-10-13T18:10:10.878Z,730.36
2016-10-13T18:11:10.862Z,729.93
2016-10-13T18:12:10.848Z,730.26
2016-10-13T18:13:10.840Z,730.22
2016-10-13T18:14:10.818Z,730.35
2016-10-13T18:15:10.810Z,730.36
2016-10-13T18:16:10.795Z,730.29
2016-10-13T18:17:10.773Z,730.34
2016-10-13T18:18:10.757Z,730.1
2016-10-13T18:19:10.742Z,730.32
2016-10-13T18:20:10.735Z,730.18
2016-10-13T18:21:10.720Z,730.36
2016-10-13T18:22:10.697Z,730.46
2016-10-13T18:23:10.689Z,730.24
2016-10-13T18:24:10.675Z,730.15
2016-10-13T18:25:10.660Z,730.12
2016-10-13T18:26:10.639Z,730.38
2016-10-13T18:27:10.624Z,730.41
2016-10-13T18:28:10.609Z,730.4
2016-10-13T18:29:10.601Z,730.46
2016-10-13T18:30:10.580Z,730.4
2016-10-13T18:31:10.564Z,730.31
2016-10-13T18:32:10.556Z,730.43
2016-10-13T18:33:10.541Z,730.13
2016-10-13T18:34:10.519Z,730.19
2016-10-13T18:35:10.504Z,730.17
2016-10-13T18:36:10.489Z,730.05
2016-10-13T18:37:10.482Z,730.02
2016-10-13T18:38:10.467Z,730.24
2016-10-13T18:39:10.451Z,730.34
2016-10-13T18:40:10.437Z,730.37
2016-10-13T18:41:10.415Z,730.09
2016-10-13T18:42:10.401Z,730.09
2016-10-13T18:43:10.385Z,730
2016-10-13T18:44:10.370Z,730.23
2016-10-13T18:45:10.355Z,730.01
2016-10-13T18:46:10.347Z,730.12
2016-10-13T18:47:10.326Z,730.14
2016-10-13T18:48:10.317Z,730.33
2016-10-13T18:49:10.302Z,730.23
2016-10-13T18:50:10.287Z,730.3
2016-10-13T18:51:10.265Z,730.06
2016-10-13T18:52:10.251Z,730.02
2016-10-13T18:53:10.243Z,729.88
2016-10-13T18:54:10.220Z,730.2
2016-10-13T18:55:10.206Z,730.32
2016-10-13T18:56:10.191Z,730.07
2016-10-13T18:57:10.176Z,730.18
2016-10-13T18:58:10.161Z,730.22
2016-10-13T18:59:10.146Z,730.36
2016-10-13T19:00:10.138Z,730.3
2016-10-13T19:01:10.116Z,730.4
2016-10-13T19:02:10.102Z,729.84
2016-10-13T19:03:10.090Z,730.61
2016-10-13T19:04:10.073Z,730.28
2016-10-13T19:05:10.058Z,729.97
2016-10-13T19:06:10.042Z,730.34
2016-10-13T19:07:10.028Z,730.16
2016-10-13T19:08:10.020Z,730.3
2016-10-13T19:09:10.006Z,730.33
2016-10-13T19:10:09.991Z,730.14
2016-10-13T19:11:09.976Z,730.29
2016-10-13T19:12:09.959Z,730.14
2016-10-13T19:13:09.957Z,730.11
2016-10-13T19:14:09.933Z,730.28
2016-10-13T19:15:09.920Z,730.17
2016-10-13T19:16:09.902Z,730.37
2016-10-13T19:17:09.880Z,730.36
2016-10-13T19:18:09.875Z,730.19
2016-10-13T19:19:09.856Z,730.44
2016-10-13T19:20:09.844Z,730.37
2016-10-13T19:21:09.819Z,730.23
2016-10-13T19:22:09.805Z,730.33
2016-10-13T19:23:09.807Z,730.25
2016-10-13T19:24:09.789Z,730.33
2016-10-13T19:25:09.766Z,730.55
2016-10-13T19:26:09.752Z,730.1
2016-10-13T19:27:09.728Z,730.52
2016-10-13T19:28:09.733Z,730.47
2016-10-13T19:29:09.710Z,730.12
2016-10-13T19:30:09.683Z,730.42
2016-10-13T19:31:09.668Z,730.44
2016-10-13T19:32:09.654Z,730.4
2016-10-13T19:33:09.643Z,730.52
2016-10-13T19:34:09.639Z,730.43
2016-10-13T19:35:09.615Z,730.44
2016-10-13T19:36:09.600Z,730.7
2016-10-13T19:37:09.582Z,730.38
2016-10-13T19:38:09.576Z,730.55
2016-10-13T19:39:09.555Z,730.75
2016-10-13T19:40:09.540Z,730.54
2016-10-13T19:41:09.520Z,730.37
2016-10-13T19:42:09.509Z,730.31
2016-10-13T19:43:09.494Z,730.73
2016-10-13T19:44:09.482Z,730.75
2016-10-13T19:45:09.457Z,730.69
2016-10-13T19:46:09.450Z,730.27
2016-10-13T19:47:09.427Z,730.56
2016-10-13T19:48:09.420Z,730.73
2016-10-13T19:49:09.404Z,730.44
2016-10-13T19:50:09.391Z,730.55
2016-10-13T19:51:09.375Z,730.49